Time;durP1;ratioP1;P1;durP2;ratioP2;P2;SDS_P1;SDS_P2;PMS_P1;PMS_P2;Temp;Humidity;BMP_temperature;BMP_pressure;BME280_temperature;BME280_humidity;BME280_pressure;Samples;Min_cycle;Max_cycle;Signal;HPM_P1;HPM_P2
2024/04/09 04:04:26;;;;;;;1.73;1.63;;;15.50;97.30;;;;;;5169576;27;20536;-63
2024/04/09 04:06:51;;;;;;;2.00;1.43;;;15.50;97.30;;;;;;5170516;27;20480;-63
2024/04/09 04:09:17;;;;;;;5.00;2.13;;;15.60;97.30;;;;;;5185671;27;20635;-63
2024/04/09 04:11:42;;;;;;;2.40;1.97;;;15.70;97.30;;;;;;5185417;27;20240;-63
2024/04/09 04:14:08;;;;;;;2.63;1.70;;;15.70;97.30;;;;;;5171051;27;20347;-63
2024/04/09 04:16:33;;;;;;;5.83;3.57;;;15.70;97.30;;;;;;5186178;27;20339;-63
2024/04/09 04:18:59;;;;;;;8.33;2.83;;;15.70;97.30;;;;;;5193856;27;20346;-62
2024/04/09 04:21:24;;;;;;;4.27;2.80;;;15.70;97.30;;;;;;5205300;27;20643;-63
2024/04/09 04:23:54;;;;;;;5.80;2.60;;;15.70;97.30;;;;;;5159102;27;20275;-63
2024/04/09 04:26:20;;;;;;;2.20;2.00;;;15.70;97.30;;;;;;5198677;27;20732;-63
2024/04/09 04:28:47;;;;;;;3.17;2.37;;;15.80;97.30;;;;;;5186902;27;20473;-63
2024/04/09 04:31:29;;;;;;;1.90;1.50;;;15.90;97.30;;;;;;5196647;27;20471;-62
2024/04/09 04:33:55;;;;;;;2.00;1.90;;;16.00;97.30;;;;;;5167256;27;20474;-63
2024/04/09 04:36:20;;;;;;;2.27;1.90;;;16.00;97.30;;;;;;5191724;27;20524;-63
2024/04/09 04:38:47;;;;;;;1.53;1.40;;;16.10;97.30;;;;;;5185528;27;20351;-63
2024/04/09 04:41:13;;;;;;;2.20;2.00;;;16.10;97.30;;;;;;5195127;27;20227;-63
2024/04/09 04:43:39;;;;;;;2.63;2.07;;;16.10;97.30;;;;;;5188476;27;20476;-63
2024/04/09 04:46:06;;;;;;;2.03;1.90;;;16.10;97.30;;;;;;5171743;27;20511;-63
2024/04/09 04:48:33;;;;;;;5.60;1.80;;;16.20;97.30;;;;;;5172510;27;20796;-63
2024/04/09 04:50:59;;;;;;;1.43;1.33;;;16.20;97.30;;;;;;5203553;27;20554;-63
2024/04/09 04:53:24;;;;;;;3.03;1.83;;;16.30;97.30;;;;;;5178500;27;20535;-63
2024/04/09 04:55:50;;;;;;;2.43;2.23;;;16.40;97.30;;;;;;5190289;27;20582;-63
2024/04/09 04:58:16;;;;;;;2.40;2.20;;;16.40;97.30;;;;;;5192035;27;20323;-63
2024/04/09 05:00:42;;;;;;;3.30;3.10;;;16.50;97.30;;;;;;5185440;27;20301;-63
2024/04/09 05:03:09;;;;;;;2.40;1.90;;;16.50;97.30;;;;;;5171837;27;20468;-63
2024/04/09 05:05:35;;;;;;;1.87;1.30;;;16.60;97.30;;;;;;5185380;27;20615;-63
2024/04/09 05:08:01;;;;;;;1.97;1.83;;;16.60;97.30;;;;;;5190778;27;21046;-63
2024/04/09 05:10:27;;;;;;;8.33;3.03;;;16.60;97.30;;;;;;5190927;27;20235;-63
2024/04/09 05:12:54;;;;;;;1.83;1.77;;;16.70;97.30;;;;;;5185337;27;20520;-63
2024/04/09 05:15:20;;;;;;;1.90;1.80;;;16.70;97.30;;;;;;5185419;27;20472;-63
2024/04/09 05:17:47;;;;;;;3.70;1.90;;;16.80;97.30;;;;;;5175537;27;20460;-63
2024/04/09 05:20:16;;;;;;;3.53;3.33;;;16.80;97.30;;;;;;5202715;27;20475;-63
2024/04/09 05:22:47;;;;;;;1.67;1.57;;;16.90;97.30;;;;;;5188064;27;20461;-63
2024/04/09 05:25:14;;;;;;;8.00;4.67;;;17.00;97.30;;;;;;5181817;27;20467;-66
2024/04/09 05:27:40;;;;;;;6.97;2.60;;;17.00;97.30;;;;;;5186255;27;20979;-66
2024/04/09 05:30:07;;;;;;;5.73;2.43;;;17.00;97.30;;;;;;5170140;27;20490;-65
2024/04/09 05:32:39;;;;;;;4.93;1.77;;;17.10;97.30;;;;;;5170917;27;20512;-66
2024/04/09 05:35:05;;;;;;;3.10;2.60;;;17.10;97.30;;;;;;5178970;27;21007;-66
2024/04/09 05:37:31;;;;;;;3.00;1.97;;;17.20;97.30;;;;;;5173308;27;20527;-66
2024/04/09 05:39:59;;;;;;;2.20;2.03;;;17.20;97.30;;;;;;5170718;27;20485;-66
2024/04/09 05:42:26;;;;;;;2.30;2.00;;;17.20;97.30;;;;;;5165877;27;20261;-66
2024/04/09 05:44:51;;;;;;;10.10;2.50;;;17.30;97.30;;;;;;5170710;27;20532;-66
2024/04/09 05:47:17;;;;;;;1.67;1.63;;;17.40;97.30;;;;;;5172693;27;20287;-66
2024/04/09 05:49:44;;;;;;;3.97;2.47;;;17.40;97.30;;;;;;5168747;27;20743;-66
2024/04/09 05:52:10;;;;;;;2.50;2.10;;;17.40;97.30;;;;;;5171080;27;20349;-66
2024/04/09 05:54:43;;;;;;;2.23;1.50;;;17.40;97.30;;;;;;5165188;27;20498;-66
2024/04/09 05:57:12;;;;;;;2.57;2.37;;;17.50;97.30;;;;;;5179865;27;20719;-66
2024/04/09 05:59:37;;;;;;;3.63;2.33;;;17.40;97.30;;;;;;5172114;27;20472;-66
2024/04/09 06:02:03;;;;;;;3.67;2.17;;;17.40;97.30;;;;;;5180317;27;20588;-66
2024/04/09 06:04:29;;;;;;;2.00;1.90;;;17.40;97.30;;;;;;5171101;27;20232;-63
2024/04/09 06:06:55;;;;;;;3.00;2.20;;;17.50;97.30;;;;;;5189910;27;20247;-63
2024/04/09 06:09:20;;;;;;;4.73;2.40;;;17.50;97.30;;;;;;5177717;27;20284;-63
2024/04/09 06:11:46;;;;;;;1.77;1.60;;;17.50;97.30;;;;;;5184668;27;20244;-63
2024/04/09 06:14:12;;;;;;;2.80;2.60;;;17.60;97.30;;;;;;5181866;27;20314;-63
2024/04/09 06:16:37;;;;;;;9.90;1.63;;;17.70;97.30;;;;;;5173645;27;20232;-63
2024/04/09 06:19:03;;;;;;;4.17;1.70;;;17.80;97.30;;;;;;5188759;27;20530;-63
2024/04/09 06:21:29;;;;;;;3.90;3.00;;;17.80;97.30;;;;;;5196644;27;20290;-63
2024/04/09 06:23:54;;;;;;;1.97;1.83;;;17.90;97.30;;;;;;5186446;27;20255;-63
2024/04/09 06:26:20;;;;;;;2.57;2.30;;;18.00;97.30;;;;;;5177361;27;20780;-63
2024/04/09 06:28:46;;;;;;;1.70;1.60;;;18.10;97.30;;;;;;5168608;27;20244;-63
2024/04/09 06:31:11;;;;;;;2.20;2.07;;;18.20;97.30;;;;;;5190344;27;20235;-63
2024/04/09 06:33:37;;;;;;;1.57;1.47;;;18.30;97.30;;;;;;5182310;27;20581;-63
2024/04/09 06:36:03;;;;;;;2.30;1.77;;;18.40;97.30;;;;;;5176927;27;20338;-63
2024/04/09 06:38:30;;;;;;;2.03;1.90;;;18.60;97.30;;;;;;5174266;27;20251;-63
2024/04/09 06:40:56;;;;;;;1.93;1.77;;;18.70;97.30;;;;;;5186307;27;20329;-63
2024/04/09 06:43:22;;;;;;;2.00;1.53;;;18.90;97.30;;;;;;5190705;27;20470;-63
2024/04/09 06:45:47;;;;;;;1.73;1.67;;;19.00;97.30;;;;;;5185177;27;20236;-63
2024/04/09 06:48:13;;;;;;;4.43;2.37;;;19.20;97.30;;;;;;5173385;27;20810;-63
2024/04/09 06:50:38;;;;;;;8.43;1.77;;;19.40;97.30;;;;;;5186558;27;20373;-63
2024/04/09 06:53:04;;;;;;;14.87;2.37;;;19.50;97.30;;;;;;5184962;27;20866;-63
2024/04/09 06:55:29;;;;;;;1.53;1.40;;;19.60;97.30;;;;;;5184100;27;20724;-63
2024/04/09 06:57:55;;;;;;;2.80;2.60;;;19.70;97.30;;;;;;5184452;27;20282;-63
2024/04/09 07:00:21;;;;;;;1.73;1.63;;;19.80;97.30;;;;;;5173333;27;20854;-62
2024/04/09 07:02:47;;;;;;;3.47;2.90;;;19.90;97.30;;;;;;5178092;27;20278;-63
2024/04/09 07:05:13;;;;;;;2.40;1.93;;;20.00;97.30;;;;;;5192453;27;20228;-62
2024/04/09 07:07:38;;;;;;;1.90;1.80;;;20.10;97.30;;;;;;5174120;27;20465;-63
2024/04/09 07:10:05;;;;;;;1.60;1.50;;;20.10;97.30;;;;;;5186522;27;20661;-63
2024/04/09 07:12:32;;;;;;;2.93;1.83;;;20.20;97.30;;;;;;5185418;27;20282;-63
2024/04/09 07:14:59;;;;;;;1.53;1.43;;;20.30;97.30;;;;;;5176549;27;20534;-63
2024/04/09 07:17:24;;;;;;;5.47;2.70;;;20.40;97.30;;;;;;5190945;27;20483;-63
2024/04/09 07:19:50;;;;;;;1.30;1.13;;;20.50;97.30;;;;;;5178837;27;20534;-63
2024/04/09 07:22:15;;;;;;;1.63;1.10;;;20.50;97.30;;;;;;5162620;27;20245;-63
2024/04/09 07:24:43;;;;;;;2.50;1.53;;;20.60;97.30;;;;;;5180252;27;20285;-63
2024/04/09 07:27:09;;;;;;;2.00;1.60;;;20.70;97.30;;;;;;5180678;27;20232;-63
2024/04/09 07:29:35;;;;;;;9.73;3.13;;;20.80;97.20;;;;;;5172861;27;20465;-63
2024/04/09 07:32:02;;;;;;;1.57;1.47;;;20.90;97.10;;;;;;5172540;27;20473;-62
2024/04/09 07:34:27;;;;;;;1.73;1.57;;;20.90;97.20;;;;;;5183564;27;20995;-63
2024/04/09 07:36:53;;;;;;;2.10;1.27;;;21.10;97.00;;;;;;5171682;27;20526;-63
2024/04/09 07:39:18;;;;;;;7.43;3.00;;;21.10;96.90;;;;;;5177308;27;20355;-63
2024/04/09 07:41:44;;;;;;;1.87;1.57;;;21.20;97.30;;;;;;5173490;27;20252;-63
2024/04/09 07:44:10;;;;;;;2.00;1.93;;;21.30;96.70;;;;;;5198783;27;20239;-63
2024/04/09 07:46:35;;;;;;;2.77;2.57;;;21.40;97.00;;;;;;5184728;27;20262;-63
2024/04/09 07:49:01;;;;;;;3.03;1.47;;;21.60;95.80;;;;;;5197426;27;20227;-63
2024/04/09 07:51:27;;;;;;;1.57;1.47;;;21.60;94.70;;;;;;5178108;27;21051;-63
2024/04/09 07:53:52;;;;;;;2.03;1.70;;;21.70;94.90;;;;;;5187563;27;20274;-63
2024/04/09 07:56:18;;;;;;;2.40;2.20;;;21.90;94.30;;;;;;5179835;27;21044;-63
2024/04/09 07:58:44;;;;;;;1.73;1.70;;;22.00;94.30;;;;;;5183131;27;20280;-63
2024/04/09 08:01:10;;;;;;;1.60;1.60;;;22.10;93.90;;;;;;5191219;27;20468;-63
2024/04/09 08:03:35;;;;;;;2.90;1.57;;;22.10;93.60;;;;;;5172192;27;20729;-63
2024/04/09 08:06:04;;;;;;;1.57;1.47;;;22.20;94.10;;;;;;5185612;27;20322;-63
2024/04/09 08:08:29;;;;;;;1.50;1.50;;;22.30;93.20;;;;;;5192354;27;20550;-63
2024/04/09 08:10:55;;;;;;;2.23;2.07;;;22.40;93.60;;;;;;5181742;27;20532;-63
2024/04/09 08:13:20;;;;;;;1.87;1.60;;;22.50;93.50;;;;;;5182194;27;20228;-62
2024/04/09 08:15:46;;;;;;;3.17;1.37;;;22.60;93.10;;;;;;5191219;27;20228;-63
2024/04/09 08:18:12;;;;;;;4.70;2.03;;;22.70;92.80;;;;;;5183078;27;20223;-63
2024/04/09 08:20:38;;;;;;;3.37;2.30;;;22.80;92.30;;;;;;5165787;27;20237;-63
2024/04/09 08:23:04;;;;;;;4.17;1.50;;;22.90;93.10;;;;;;5177060;27;20341;-63
2024/04/09 08:25:30;;;;;;;1.20;1.20;;;23.00;92.00;;;;;;5186324;27;20471;-63
2024/04/09 08:28:00;;;;;;;1.53;1.50;;;23.10;91.60;;;;;;5175302;27;20236;-63
2024/04/09 08:30:26;;;;;;;5.63;4.43;;;23.30;91.50;;;;;;5177218;27;20549;-63
2024/04/09 08:32:52;;;;;;;1.80;1.70;;;23.40;90.60;;;;;;5181897;27;20480;-63
2024/04/09 08:35:19;;;;;;;12.17;1.50;;;23.50;89.30;;;;;;5181806;27;20242;-64
2024/04/09 08:37:46;;;;;;;2.60;1.70;;;23.60;88.70;;;;;;5158939;27;20294;-63
2024/04/09 08:40:13;;;;;;;2.70;1.67;;;23.70;88.60;;;;;;5195352;27;20467;-65
2024/04/09 08:42:39;;;;;;;3.23;2.07;;;23.70;87.70;;;;;;5178683;27;20523;-63
2024/04/09 08:45:08;;;;;;;2.40;2.07;;;23.60;87.80;;;;;;5167254;27;20475;-64
2024/04/09 08:47:34;;;;;;;3.23;2.13;;;23.70;87.90;;;;;;5184458;27;20281;-63
2024/04/09 08:50:00;;;;;;;7.40;2.27;;;23.80;88.70;;;;;;5171291;27;20480;-63
2024/04/09 08:52:28;;;;;;;6.20;2.33;;;24.00;88.30;;;;;;5171957;27;21009;-63
2024/04/09 08:54:53;;;;;;;2.90;1.70;;;24.20;87.90;;;;;;5181439;27;20476;-63
2024/04/09 08:57:21;;;;;;;6.93;1.60;;;24.30;86.00;;;;;;5179632;27;21115;-63
2024/04/09 08:59:47;;;;;;;13.23;3.00;;;24.10;84.70;;;;;;5194757;27;20275;-64
2024/04/09 09:02:14;;;;;;;3.57;2.60;;;24.20;86.00;;;;;;5180432;27;20480;-64
2024/04/09 09:04:44;;;;;;;2.20;1.77;;;24.30;85.10;;;;;;5188191;27;20475;-65
2024/04/09 09:07:14;;;;;;;4.30;2.03;;;24.30;84.20;;;;;;5175964;27;21035;-63
2024/04/09 09:09:41;;;;;;;6.57;2.80;;;24.40;85.10;;;;;;5170028;27;20476;-64
2024/04/09 09:12:07;;;;;;;3.07;2.37;;;24.60;84.10;;;;;;5171291;27;20552;-64
2024/04/09 09:14:33;;;;;;;5.07;2.63;;;24.70;83.60;;;;;;5171426;27;20477;-64
2024/04/09 09:17:06;;;;;;;3.57;2.23;;;24.90;82.70;;;;;;5182777;27;20289;-64
2024/04/09 09:19:36;;;;;;;1.67;1.60;;;24.90;82.30;;;;;;5175456;27;20485;-64
2024/04/09 09:22:07;;;;;;;3.73;2.33;;;25.00;82.30;;;;;;5171175;27;20476;-64
2024/04/09 09:24:34;;;;;;;1.20;1.17;;;25.10;81.60;;;;;;5179855;27;20513;-64
2024/04/09 09:27:04;;;;;;;2.80;2.13;;;25.20;83.10;;;;;;5161177;27;20472;-65
2024/04/09 09:29:30;;;;;;;4.13;2.83;;;25.20;81.20;;;;;;5171599;27;20533;-64
2024/04/09 09:31:55;;;;;;;16.07;2.70;;;25.20;80.90;;;;;;5177667;27;20529;-65
2024/04/09 09:34:37;;;;;;;2.53;2.27;;;25.20;80.50;;;;;;5164960;27;20553;-65
2024/04/09 09:37:07;;;;;;;5.07;2.23;;;25.10;81.80;;;;;;5184810;27;20312;-64
2024/04/09 09:39:35;;;;;;;3.13;2.00;;;25.20;81.40;;;;;;5174488;27;20593;-65
2024/04/09 09:42:01;;;;;;;3.80;2.90;;;25.30;81.60;;;;;;5176831;27;20479;-66
2024/04/09 09:44:29;;;;;;;1.80;1.70;;;25.40;81.40;;;;;;5193545;27;20546;-65
2024/04/09 09:46:57;;;;;;;2.80;2.30;;;25.40;81.70;;;;;;5179884;27;20929;-65
2024/04/09 09:49:24;;;;;;;3.07;2.03;;;25.40;81.20;;;;;;5179146;27;20467;-64
2024/04/09 09:51:51;;;;;;;2.17;2.03;;;25.40;81.00;;;;;;5176281;27;20480;-64
2024/04/09 09:54:16;;;;;;;2.20;1.93;;;25.40;81.60;;;;;;5185914;27;20482;-66
2024/04/09 09:56:48;;;;;;;2.10;1.87;;;25.50;81.00;;;;;;5187590;27;20475;-65
2024/04/09 09:59:19;;;;;;;13.83;2.70;;;25.70;80.60;;;;;;5167398;27;20243;-63
2024/04/09 10:01:48;;;;;;;6.93;2.07;;;25.90;81.10;;;;;;5155046;27;20527;-63
2024/04/09 10:04:23;;;;;;;1.97;1.87;;;26.10;79.40;;;;;;5170405;27;20465;-63
2024/04/09 10:07:03;;;;;;;5.40;1.63;;;26.30;77.40;;;;;;5168213;27;20464;-64
2024/04/09 10:09:48;;;;;;;5.80;1.77;;;26.20;77.10;;;;;;5165982;27;20867;-64
2024/04/09 10:12:24;;;;;;;1.63;1.53;;;26.40;76.60;;;;;;5183664;27;20527;-64
2024/04/09 10:14:57;;;;;;;3.17;1.73;;;26.40;74.10;;;;;;5170774;27;20781;-64
2024/04/09 10:17:27;;;;;;;8.93;3.57;;;26.40;74.70;;;;;;5164642;27;20544;-65
2024/04/09 10:19:53;;;;;;;5.47;3.90;;;26.30;74.00;;;;;;5182002;27;20535;-65
2024/04/09 10:22:18;;;;;;;1.43;1.33;;;26.10;74.50;;;;;;5179628;27;20476;-64
2024/04/09 10:24:44;;;;;;;2.13;1.93;;;25.90;74.30;;;;;;5191387;27;20832;-64
2024/04/09 10:27:11;;;;;;;2.73;2.30;;;25.90;74.20;;;;;;5193344;27;20728;-64
2024/04/09 10:29:37;;;;;;;4.07;2.73;;;25.70;74.50;;;;;;5185761;27;20232;-63
2024/04/09 10:32:23;;;;;;;9.70;3.10;;;25.80;76.00;;;;;;5185334;27;20865;-64
2024/04/09 10:34:49;;;;;;;5.37;2.53;;;25.70;75.80;;;;;;5186609;27;20475;-63
2024/04/09 10:37:17;;;;;;;3.37;2.53;;;25.60;74.90;;;;;;5192001;27;20479;-64
2024/04/09 10:39:42;;;;;;;2.87;2.13;;;25.40;73.50;;;;;;5181644;27;20480;-66
2024/04/09 10:42:08;;;;;;;2.73;1.90;;;25.20;73.70;;;;;;5178970;27;21079;-66
2024/04/09 10:44:33;;;;;;;1.50;1.40;;;25.40;73.50;;;;;;5175631;27;20244;-64
2024/04/09 10:46:59;;;;;;;1.07;1.07;;;25.40;73.50;;;;;;5185991;27;20231;-69
2024/04/09 10:49:25;;;;;;;2.90;1.70;;;25.50;73.60;;;;;;5178459;27;20292;-66
2024/04/09 10:51:51;;;;;;;6.93;1.67;;;25.50;73.70;;;;;;5174398;27;20353;-64
2024/04/09 10:54:16;;;;;;;6.60;1.73;;;25.50;74.40;;;;;;5178476;27;20640;-70
2024/04/09 10:56:42;;;;;;;2.90;2.57;;;25.40;74.70;;;;;;5192382;27;20832;-62
2024/04/09 10:59:21;;;;;;;5.13;2.17;;;25.20;74.00;;;;;;5191534;27;20239;-63
2024/04/09 11:01:47;;;;;;;3.20;2.10;;;25.10;75.00;;;;;;5171470;27;20646;-64
2024/04/09 11:04:13;;;;;;;1.37;1.27;;;25.10;75.20;;;;;;5227906;22;20552;-87
2024/04/09 11:06:41;;;;;;;8.03;3.17;;;25.10;75.50;;;;;;5211201;27;20685;-87
2024/04/09 11:09:06;;;;;;;1.90;1.80;;;25.00;76.30;;;;;;5217266;27;20239;-86
2024/04/09 11:11:34;;;;;;;5.50;2.07;;;25.00;76.60;;;;;;5212860;27;20463;-86
2024/04/09 11:14:00;;;;;;;1.37;1.00;;;25.00;76.30;;;;;;5230863;27;20243;-87
2024/04/09 11:16:26;;;;;;;3.53;2.27;;;24.90;76.80;;;;;;5232387;27;20537;-86
2024/04/09 11:18:57;;;;;;;4.63;2.93;;;24.80;77.30;;;;;;5231862;27;20522;-87
2024/04/09 11:21:23;;;;;;;5.07;2.90;;;24.80;78.60;;;;;;5203819;27;20251;-87
2024/04/09 11:23:48;;;;;;;17.13;2.90;;;24.70;80.10;;;;;;5232414;27;20467;-86
2024/04/09 11:26:14;;;;;;;4.60;2.07;;;24.80;81.20;;;;;;5227778;27;20290;-87
2024/04/09 11:28:47;;;;;;;3.00;2.83;;;24.50;82.80;;;;;;5221688;27;20466;-86
2024/04/09 11:31:13;;;;;;;3.60;2.13;;;24.40;83.50;;;;;;5236490;27;20230;-86
2024/04/09 11:33:39;;;;;;;3.60;2.70;;;24.50;84.30;;;;;;5234961;27;20506;-87
2024/04/09 11:36:04;;;;;;;16.43;2.40;;;24.50;81.60;;;;;;5224370;27;20251;-87
2024/04/09 11:38:31;;;;;;;3.23;2.80;;;24.40;79.70;;;;;;5219470;27;20541;-88
2024/04/09 11:40:56;;;;;;;35.90;2.07;;;24.20;81.60;;;;;;5223406;27;20235;-87
2024/04/09 11:43:22;;;;;;;11.63;3.70;;;24.10;80.30;;;;;;5229654;27;20532;-87
2024/04/09 11:45:49;;;;;;;4.43;1.50;;;23.90;81.00;;;;;;5229908;27;20236;-85
2024/04/09 11:48:15;;;;;;;2.70;1.90;;;23.80;82.00;;;;;;5224547;27;20669;-86
2024/04/09 11:50:41;;;;;;;5.30;2.20;;;23.80;82.10;;;;;;5224972;27;20465;-86
2024/04/09 11:53:09;;;;;;;5.40;3.07;;;23.70;82.70;;;;;;5224481;27;20243;-87
2024/04/09 11:55:35;;;;;;;10.10;2.40;;;23.70;83.20;;;;;;5216920;27;20341;-87
2024/04/09 11:58:00;;;;;;;3.93;3.73;;;23.80;83.10;;;;;;5213196;27;20532;-86
2024/04/09 12:00:26;;;;;;;1.90;1.30;;;23.90;82.80;;;;;;5237222;27;20246;-86
2024/04/09 12:02:52;;;;;;;16.43;3.27;;;23.90;82.70;;;;;;5218297;27;20302;-86
2024/04/09 12:05:17;;;;;;;1.50;1.40;;;24.00;83.00;;;;;;5222744;27;20286;-86
2024/04/09 12:07:44;;;;;;;41.97;2.27;;;24.00;83.50;;;;;;5227454;27;20254;-86
2024/04/09 12:10:10;;;;;;;32.00;1.87;;;24.00;84.40;;;;;;5216860;27;20277;-86
2024/04/09 12:12:36;;;;;;;3.40;1.80;;;23.90;84.50;;;;;;5231526;27;20534;-87
2024/04/09 12:15:05;;;;;;;4.57;2.57;;;23.90;84.70;;;;;;5225651;27;21009;-85
2024/04/09 12:17:34;;;;;;;8.40;2.23;;;24.00;85.00;;;;;;5221960;27;20477;-86
2024/04/09 12:20:00;;;;;;;3.00;2.13;;;24.10;85.50;;;;;;5225442;27;20459;-86
2024/04/09 12:22:26;;;;;;;20.80;2.63;;;24.20;84.80;;;;;;5223346;27;20526;-87
2024/04/09 12:24:51;;;;;;;2.13;2.03;;;24.20;84.40;;;;;;5217630;27;20250;-86
2024/04/09 12:27:17;;;;;;;4.40;1.90;;;24.10;83.80;;;;;;5223251;27;20625;-86
2024/04/09 12:29:43;;;;;;;2.53;2.10;;;23.90;83.80;;;;;;5225969;27;20737;-86
2024/04/09 12:32:10;;;;;;;4.20;2.53;;;24.00;85.10;;;;;;5232809;27;20290;-86
2024/04/09 12:34:36;;;;;;;9.30;1.33;;;24.10;84.60;;;;;;5225132;27;20519;-87
2024/04/09 12:37:03;;;;;;;3.37;1.57;;;24.20;84.50;;;;;;5235285;27;20469;-86
2024/04/09 12:39:30;;;;;;;5.80;1.77;;;24.20;84.00;;;;;;5237325;27;20594;-86
2024/04/09 12:41:58;;;;;;;23.27;2.63;;;24.00;84.20;;;;;;5226567;27;20491;-85
2024/04/09 12:44:24;;;;;;;1.77;1.60;;;23.90;84.70;;;;;;5218325;27;20559;-85
2024/04/09 12:46:50;;;;;;;12.33;2.87;;;23.70;84.80;;;;;;5217662;27;20859;-84
2024/04/09 12:49:19;;;;;;;1.53;1.40;;;23.50;84.90;;;;;;5224065;27;20512;-85
2024/04/09 12:51:45;;;;;;;5.83;1.80;;;23.30;85.60;;;;;;5216644;27;21190;-86
2024/04/09 12:54:10;;;;;;;2.90;1.83;;;23.10;86.10;;;;;;5226326;27;20511;-85
2024/04/09 12:56:38;;;;;;;13.03;1.90;;;22.90;87.00;;;;;;5227572;27;20241;-87
2024/04/09 12:59:05;;;;;;;5.53;2.00;;;22.70;87.20;;;;;;5214847;27;20321;-86
2024/04/09 13:01:31;;;;;;;1.63;1.33;;;22.60;87.20;;;;;;5228505;27;20478;-86
2024/04/09 13:03:56;;;;;;;2.13;1.70;;;22.60;87.80;;;;;;5223672;27;20523;-85
2024/04/09 13:06:22;;;;;;;1.57;1.47;;;22.50;87.80;;;;;;5230314;27;20284;-86
2024/04/09 13:08:47;;;;;;;6.10;1.73;;;22.50;88.20;;;;;;5220861;27;20234;-86
2024/04/09 13:11:13;;;;;;;3.50;1.60;;;22.50;88.80;;;;;;5239948;27;20740;-86
2024/04/09 13:13:39;;;;;;;3.87;2.23;;;22.50;88.00;;;;;;5229607;27;20249;-87
2024/04/09 13:16:08;;;;;;;2.60;1.87;;;22.30;87.20;;;;;;5231523;27;20613;-87
2024/04/09 13:18:33;;;;;;;2.93;1.27;;;22.20;88.20;;;;;;5236619;27;20998;-85
2024/04/09 13:20:59;;;;;;;1.93;1.83;;;22.20;88.90;;;;;;5238460;27;20594;-87
2024/04/09 13:23:24;;;;;;;2.33;1.67;;;22.30;89.50;;;;;;5229136;27;20281;-86
2024/04/09 13:25:52;;;;;;;6.93;2.23;;;22.30;89.30;;;;;;5209808;27;20270;-87
2024/04/09 13:28:18;;;;;;;3.23;1.43;;;22.30;89.90;;;;;;5215437;27;20285;-85
2024/04/09 13:30:43;;;;;;;1.13;0.90;;;22.30;89.90;;;;;;5226537;27;20474;-86
2024/04/09 13:33:09;;;;;;;2.60;1.40;;;22.30;89.80;;;;;;5228867;27;20620;-85
2024/04/09 13:35:34;;;;;;;5.33;1.97;;;22.30;90.20;;;;;;5226694;27;20545;-86
2024/04/09 13:38:00;;;;;;;2.00;1.90;;;22.30;89.30;;;;;;5222055;27;20601;-87
2024/04/09 13:40:26;;;;;;;9.17;2.40;;;22.30;90.20;;;;;;5225448;27;20242;-87
2024/04/09 13:42:51;;;;;;;4.53;2.50;;;22.30;90.50;;;;;;5232009;27;20554;-86
2024/04/09 13:45:17;;;;;;;4.80;2.70;;;22.30;90.60;;;;;;5225406;27;20247;-86
2024/04/09 13:47:45;;;;;;;8.67;1.70;;;22.30;90.50;;;;;;5208014;27;20330;-85
2024/04/09 13:50:11;;;;;;;1.20;1.00;;;22.20;90.80;;;;;;5222090;27;20297;-86
2024/04/09 13:52:36;;;;;;;2.97;1.53;;;22.10;90.80;;;;;;5238193;27;20473;-87
2024/04/09 13:55:02;;;;;;;7.57;3.27;;;22.10;91.60;;;;;;5231867;27;20959;-85
2024/04/09 13:57:29;;;;;;;6.07;2.70;;;22.20;91.70;;;;;;5207418;27;20258;-86
2024/04/09 13:59:58;;;;;;;4.90;2.00;;;22.30;92.10;;;;;;5215757;27;20582;-87
2024/04/09 14:02:23;;;;;;;7.70;2.20;;;22.40;91.90;;;;;;5214134;27;20521;-87
2024/04/09 14:04:49;;;;;;;10.20;2.67;;;22.40;91.10;;;;;;5213697;27;20459;-87
2024/04/09 14:07:15;;;;;;;4.70;1.33;;;22.40;90.20;;;;;;5213967;27;20247;-87
2024/04/09 14:09:41;;;;;;;1.67;1.23;;;22.20;91.70;;;;;;5224506;27;20234;-87
2024/04/09 14:12:07;;;;;;;3.83;1.50;;;22.10;91.30;;;;;;5212176;27;20536;-87
2024/04/09 14:14:33;;;;;;;1.80;1.60;;;22.10;91.90;;;;;;5229542;27;20454;-87
2024/04/09 14:17:00;;;;;;;1.73;1.70;;;22.00;92.20;;;;;;5220310;27;20269;-86
2024/04/09 14:19:25;;;;;;;1.93;1.57;;;21.80;93.30;;;;;;5215421;27;20775;-86
2024/04/09 14:21:51;;;;;;;1.80;1.70;;;21.70;93.40;;;;;;5223278;27;20455;-86
2024/04/09 14:24:16;;;;;;;3.40;1.40;;;21.60;92.80;;;;;;5211056;27;20595;-87
2024/04/09 14:26:42;;;;;;;2.30;1.90;;;21.50;92.70;;;;;;5235072;27;20280;-87
2024/04/09 14:29:11;;;;;;;2.33;1.37;;;21.30;93.40;;;;;;5220066;27;20255;-87
2024/04/09 14:31:37;;;;;;;13.40;3.23;;;21.20;93.80;;;;;;5210568;27;20250;-87
2024/04/09 14:34:06;;;;;;;1.40;1.20;;;21.20;93.90;;;;;;5218860;27;20572;-87
2024/04/09 14:36:32;;;;;;;3.83;2.80;;;21.10;94.00;;;;;;5224701;27;20514;-87
2024/04/09 14:38:58;;;;;;;1.83;1.77;;;21.10;94.50;;;;;;5219548;27;20863;-88
2024/04/09 14:41:23;;;;;;;2.60;1.77;;;21.10;94.30;;;;;;5213642;27;20463;-87
2024/04/09 14:43:49;;;;;;;1.03;0.93;;;21.10;94.60;;;;;;5223536;27;20250;-86
2024/04/09 14:46:15;;;;;;;1.83;1.77;;;21.10;95.00;;;;;;5217936;27;20247;-87
2024/04/09 14:48:44;;;;;;;14.63;1.80;;;21.10;95.10;;;;;;5210904;27;20759;-87
2024/04/09 14:51:10;;;;;;;1.73;1.57;;;21.00;95.30;;;;;;5207212;27;20726;-87
2024/04/09 14:53:36;;;;;;;2.87;2.03;;;21.00;95.30;;;;;;5210094;27;20535;-88
2024/04/09 14:56:02;;;;;;;5.33;1.23;;;20.90;95.20;;;;;;5229676;27;20280;-87
2024/04/09 14:58:29;;;;;;;1.90;1.80;;;20.90;94.90;;;;;;5233692;27;21039;-87
2024/04/09 15:00:54;;;;;;;5.90;1.87;;;20.90;94.70;;;;;;5210290;27;20471;-87
2024/04/09 15:03:20;;;;;;;4.20;1.43;;;20.80;94.60;;;;;;5210494;27;21021;-86
2024/04/09 15:05:50;;;;;;;1.53;1.27;;;20.60;93.00;;;;;;5215966;27;20294;-87
2024/04/09 15:08:15;;;;;;;1.40;1.33;;;20.40;92.00;;;;;;5213535;27;20323;-84
2024/04/09 15:10:55;;;;;;;1.00;0.90;;;20.10;92.00;;;;;;5213207;27;20494;-86
2024/04/09 15:13:21;;;;;;;2.70;1.40;;;19.80;92.30;;;;;;5224197;27;20271;-87
2024/04/09 15:15:46;;;;;;;0.90;0.80;;;19.70;92.00;;;;;;5213551;27;20479;-84
2024/04/09 15:18:12;;;;;;;1.17;1.17;;;19.60;92.20;;;;;;5212600;27;20270;-87
2024/04/09 15:20:37;;;;;;;10.67;2.43;;;19.50;92.60;;;;;;5222903;27;20284;-86
2024/04/09 15:23:03;;;;;;;6.83;1.47;;;19.40;92.90;;;;;;5230048;27;20246;-86
2024/04/09 15:25:29;;;;;;;1.33;1.30;;;19.40;93.50;;;;;;5216011;27;20240;-87
2024/04/09 15:27:56;;;;;;;1.23;1.10;;;19.30;93.70;;;;;;5239349;27;20290;-87
2024/04/09 15:30:22;;;;;;;1.30;1.20;;;19.20;93.80;;;;;;5216320;27;20247;-87
2024/04/09 15:32:48;;;;;;;1.30;1.20;;;18.90;94.30;;;;;;5224349;27;21057;-86
2024/04/09 15:35:16;;;;;;;1.23;1.20;;;18.60;94.80;;;;;;5214129;27;20463;-87
2024/04/09 15:37:44;;;;;;;1.43;1.20;;;18.30;95.30;;;;;;5211867;27;20264;-87
2024/04/09 15:40:14;;;;;;;1.20;1.07;;;18.10;95.80;;;;;;5215802;27;20524;-86
2024/04/09 15:42:40;;;;;;;1.20;1.17;;;17.90;96.00;;;;;;5219815;27;20531;-88
2024/04/09 15:45:06;;;;;;;1.10;1.00;;;17.60;96.80;;;;;;5222807;27;20999;-86
2024/04/09 15:47:32;;;;;;;0.90;0.80;;;17.60;96.90;;;;;;5216666;27;20552;-86
2024/04/09 15:49:57;;;;;;;1.63;1.53;;;17.60;97.10;;;;;;5219110;27;20239;-86
2024/04/09 15:52:23;;;;;;;0.90;0.80;;;17.50;97.30;;;;;;5214588;27;20302;-86
2024/04/09 15:54:48;;;;;;;0.93;0.87;;;17.50;97.00;;;;;;5213380;27;20235;-86
2024/04/09 15:57:14;;;;;;;1.03;0.97;;;17.30;96.50;;;;;;5210861;27;20271;-85
2024/04/09 15:59:40;;;;;;;1.87;1.20;;;17.10;96.60;;;;;;5213280;27;20725;-86
2024/04/09 16:02:05;;;;;;;1.00;0.90;;;16.90;96.50;;;;;;5212814;27;20285;-86
2024/04/09 16:04:31;;;;;;;1.60;0.93;;;16.70;96.50;;;;;;5224638;27;20270;-87
2024/04/09 16:06:59;;;;;;;0.83;0.77;;;16.60;96.70;;;;;;5223960;27;20572;-86
2024/04/09 16:09:24;;;;;;;1.10;1.00;;;16.50;96.80;;;;;;5211894;27;20240;-86
2024/04/09 16:11:50;;;;;;;1.33;1.23;;;16.40;96.80;;;;;;5211705;27;20471;-86
2024/04/09 16:14:16;;;;;;;0.90;0.80;;;16.30;97.20;;;;;;5223054;27;20245;-87
2024/04/09 16:16:45;;;;;;;2.00;0.90;;;16.30;97.30;;;;;;5221891;27;20250;-86
2024/04/09 16:19:11;;;;;;;0.90;0.90;;;16.20;97.00;;;;;;5208168;27;20246;-87
2024/04/09 16:21:36;;;;;;;1.00;0.90;;;16.20;97.30;;;;;;5230450;27;20826;-86
2024/04/09 16:24:02;;;;;;;1.00;0.90;;;16.10;97.30;;;;;;5209542;27;20278;-86
2024/04/09 16:26:27;;;;;;;0.97;0.97;;;16.00;97.30;;;;;;5217540;27;20266;-85
2024/04/09 16:28:53;;;;;;;0.90;0.80;;;16.00;96.90;;;;;;5227149;27;20243;-86
2024/04/09 16:31:18;;;;;;;0.90;0.80;;;15.90;97.20;;;;;;5208357;27;20306;-86
2024/04/09 16:33:44;;;;;;;2.60;1.00;;;15.90;97.00;;;;;;5216912;27;20301;-86
2024/04/09 16:36:14;;;;;;;0.80;0.80;;;15.80;96.10;;;;;;5229488;27;20246;-87
2024/04/09 16:38:40;;;;;;;1.10;1.00;;;15.70;95.90;;;;;;5244152;27;20277;-85
2024/04/09 16:41:08;;;;;;;1.53;1.10;;;15.70;96.30;;;;;;5221342;27;20479;-86
2024/04/09 16:43:34;;;;;;;0.90;0.80;;;15.70;96.60;;;;;;5223072;27;20282;-87
2024/04/09 16:45:59;;;;;;;1.00;0.90;;;15.80;96.40;;;;;;5224104;27;20467;-86